Time;durP1;ratioP1;P1;durP2;ratioP2;P2;SDS_P1;SDS_P2;PMS_P1;PMS_P2;Temp;Humidity;BMP_temperature;BMP_pressure;BME280_temperature;BME280_humidity;BME280_pressure;Samples;Min_cycle;Max_cycle;Signal;HPM_P1;HPM_P2
2022/10/26 00:00:30;;;;;;;24.05;11.85;;;16.20;99.90;;;;;;5033309;28;20040;-75
2022/10/26 00:02:56;;;;;;;23.75;11.48;;;16.20;99.90;;;;;;5028694;28;20487;-76
2022/10/26 00:05:22;;;;;;;26.73;11.80;;;16.20;99.90;;;;;;5031979;28;20049;-76
2022/10/26 00:07:49;;;;;;;22.42;12.40;;;16.20;99.90;;;;;;5026216;28;20026;-76
2022/10/26 00:10:15;;;;;;;24.23;12.48;;;16.20;99.90;;;;;;5029936;28;20398;-76
2022/10/26 00:12:41;;;;;;;32.25;13.75;;;16.30;99.90;;;;;;5031134;28;20046;-76
2022/10/26 00:15:07;;;;;;;23.48;12.48;;;16.40;99.90;;;;;;5023027;28;20073;-75
2022/10/26 00:17:33;;;;;;;23.60;11.93;;;16.40;99.90;;;;;;5022586;28;20029;-76
2022/10/26 00:20:01;;;;;;;34.05;13.15;;;16.40;99.90;;;;;;5020548;28;20032;-76
2022/10/26 00:22:26;;;;;;;23.25;11.45;;;16.40;99.90;;;;;;5025713;28;20108;-75
2022/10/26 00:24:52;;;;;;;28.23;13.20;;;16.40;99.90;;;;;;5038607;28;20109;-75
2022/10/26 00:27:18;;;;;;;37.28;13.93;;;16.40;99.90;;;;;;5036722;28;20486;-76
2022/10/26 00:29:44;;;;;;;22.00;11.25;;;16.40;99.90;;;;;;5031831;28;20097;-76
2022/10/26 00:32:10;;;;;;;25.85;13.27;;;16.40;99.90;;;;;;5035045;28;20018;-75
2022/10/26 00:34:36;;;;;;;29.50;13.65;;;16.40;99.90;;;;;;5023482;28;20034;-75
2022/10/26 00:37:02;;;;;;;30.23;12.60;;;16.40;99.90;;;;;;5028455;28;20030;-75
2022/10/26 00:39:27;;;;;;;31.70;12.93;;;16.40;99.90;;;;;;5025238;28;20399;-75
2022/10/26 00:41:53;;;;;;;27.10;13.13;;;16.40;99.90;;;;;;5026496;28;20089;-75
2022/10/26 00:44:53;;;;;;;31.90;13.68;;;16.50;99.90;;;;;;5038802;28;20385;-75
2022/10/26 00:47:42;;;;;;;21.58;13.10;;;16.40;99.90;;;;;;5027057;28;20030;-75
2022/10/26 00:50:32;;;;;;;31.65;12.60;;;16.40;99.90;;;;;;5033769;28;20022;-76
2022/10/26 00:53:02;;;;;;;30.75;13.90;;;16.50;99.90;;;;;;5029499;28;20569;-76
2022/10/26 00:55:33;;;;;;;32.60;14.60;;;16.50;99.90;;;;;;5016023;28;20032;-76
2022/10/26 00:58:02;;;;;;;22.45;12.50;;;16.60;99.90;;;;;;5026208;28;20022;-75
2022/10/26 01:00:27;;;;;;;30.75;14.20;;;16.50;99.90;;;;;;5030783;28;20064;-76
2022/10/26 01:02:56;;;;;;;32.30;13.82;;;16.60;99.90;;;;;;5022780;28;20033;-75
2022/10/26 01:05:23;;;;;;;27.13;14.23;;;16.50;99.90;;;;;;5021189;28;20085;-76
2022/10/26 01:07:50;;;;;;;32.60;15.25;;;16.50;99.90;;;;;;5021069;28;20052;-75
2022/10/26 01:10:17;;;;;;;33.63;14.48;;;16.40;99.90;;;;;;5019868;28;20015;-75
2022/10/26 01:12:44;;;;;;;35.97;16.13;;;16.50;99.90;;;;;;5019235;28;20494;-75
2022/10/26 01:15:10;;;;;;;33.05;14.60;;;16.50;99.90;;;;;;5030554;28;20028;-75
2022/10/26 01:17:54;;;;;;;38.17;15.82;;;16.50;99.90;;;;;;5035164;28;20124;-75
2022/10/26 01:20:51;;;;;;;32.10;15.38;;;16.50;99.90;;;;;;5018612;28;20513;-75
2022/10/26 01:23:48;;;;;;;31.13;15.00;;;16.50;99.90;;;;;;5022314;28;20084;-75
2022/10/26 01:27:01;;;;;;;35.90;16.52;;;16.40;99.90;;;;;;5027096;28;20104;-75
2022/10/26 01:29:56;;;;;;;39.75;14.93;;;16.40;99.90;;;;;;5026147;28;20034;-75
2022/10/26 01:32:29;;;;;;;34.83;16.15;;;16.40;99.90;;;;;;5033843;28;20017;-76
2022/10/26 01:35:15;;;;;;;31.65;15.80;;;16.40;99.90;;;;;;5029191;28;20033;-75
2022/10/26 01:37:52;;;;;;;29.60;17.08;;;16.30;99.90;;;;;;5018837;28;20036;-76
2022/10/26 01:40:33;;;;;;;31.83;15.88;;;16.30;99.90;;;;;;5040475;28;20021;-75
2022/10/26 01:43:01;;;;;;;;;;;16.40;99.90;;;;;;5026878;28;20022;-75
2022/10/26 01:45:29;;;;;;;35.83;17.83;;;16.40;99.90;;;;;;5023612;28;19905;-76
2022/10/26 01:47:57;;;;;;;42.17;17.85;;;16.40;99.90;;;;;;5024114;28;20091;-75
2022/10/26 01:50:23;;;;;;;36.85;18.15;;;16.40;99.90;;;;;;5019849;28;20490;-75
2022/10/26 01:52:49;;;;;;;33.58;15.45;;;16.40;99.90;;;;;;5020345;28;20010;-76
2022/10/26 01:55:37;;;;;;;33.38;16.80;;;16.40;99.90;;;;;;5018763;28;20030;-75
2022/10/26 01:58:20;;;;;;;32.92;17.42;;;16.40;99.90;;;;;;5024469;28;20078;-76
2022/10/26 02:00:59;;;;;;;36.90;17.40;;;16.40;99.90;;;;;;5034346;28;20041;-75
2022/10/26 02:03:39;;;;;;;30.25;17.73;;;16.40;99.90;;;;;;5035396;28;20528;-74
2022/10/26 02:06:48;;;;;;;37.47;17.63;;;16.30;99.90;;;;;;5030562;28;20183;-76
2022/10/26 02:09:37;;;;;;;31.80;17.85;;;16.30;99.90;;;;;;5025916;28;20038;-75
2022/10/26 02:12:12;;;;;;;33.38;16.42;;;16.20;99.90;;;;;;5029438;28;20033;-74
2022/10/26 02:14:54;;;;;;;44.17;19.02;;;16.20;99.90;;;;;;5027114;28;20037;-75
2022/10/26 02:17:26;;;;;;;36.60;17.55;;;16.20;99.90;;;;;;5022553;28;20113;-75
2022/10/26 02:20:04;;;;;;;46.03;18.15;;;16.10;99.90;;;;;;5024845;28;20025;-75
2022/10/26 02:22:38;;;;;;;37.05;16.63;;;16.10;99.90;;;;;;5021121;28;20025;-75
2022/10/26 02:25:10;;;;;;;36.40;17.40;;;16.00;99.90;;;;;;5022489;28;20033;-75
2022/10/26 02:27:43;;;;;;;38.83;17.67;;;15.90;99.90;;;;;;5018852;28;20052;-75
2022/10/26 02:30:11;;;;;;;40.92;16.80;;;15.80;99.90;;;;;;5033818;28;20025;-75
2022/10/26 02:32:41;;;;;;;39.38;17.25;;;15.70;99.90;;;;;;5034081;28;20464;-75
2022/10/26 02:35:08;;;;;;;33.25;17.63;;;15.70;99.90;;;;;;5031247;28;20466;-75
2022/10/26 02:37:36;;;;;;;35.00;18.10;;;15.60;99.90;;;;;;5033610;28;20029;-75
2022/10/26 02:40:06;;;;;;;41.28;17.08;;;15.50;99.90;;;;;;5027818;28;20491;-75
2022/10/26 02:42:33;;;;;;;32.00;16.37;;;15.40;99.90;;;;;;5031934;28;20022;-75
2022/10/26 02:45:05;;;;;;;45.83;17.95;;;15.30;99.90;;;;;;5024662;28;20090;-75
2022/10/26 02:47:32;;;;;;;34.95;17.92;;;15.30;99.90;;;;;;5017156;28;20022;-75
2022/10/26 02:49:58;;;;;;;36.58;17.52;;;15.20;99.90;;;;;;5021616;28;20021;-75
2022/10/26 02:52:47;;;;;;;34.20;18.42;;;15.10;99.90;;;;;;5015911;28;20026;-75
2022/10/26 02:55:21;;;;;;;27.83;16.63;;;15.00;99.90;;;;;;5021261;28;20508;-74
2022/10/26 02:57:52;;;;;;;38.35;18.23;;;14.90;99.90;;;;;;5021464;28;20026;-74
2022/10/26 03:00:18;;;;;;;36.20;17.88;;;14.80;99.90;;;;;;5024031;28;20021;-75
2022/10/26 03:02:51;;;;;;;33.65;17.80;;;14.80;99.90;;;;;;5025815;28;20033;-74
2022/10/26 03:05:23;;;;;;;37.88;17.80;;;14.70;99.90;;;;;;5016357;28;20025;-75
2022/10/26 03:07:49;;;;;;;41.67;18.50;;;14.60;99.90;;;;;;5014846;28;20026;-75
2022/10/26 03:10:15;;;;;;;30.45;17.35;;;14.60;99.90;;;;;;5025305;28;20513;-74
2022/10/26 03:12:41;;;;;;;43.70;19.38;;;14.60;99.90;;;;;;5020385;28;20056;-74
2022/10/26 03:15:07;;;;;;;37.30;19.00;;;14.50;99.90;;;;;;5022016;28;20509;-75
2022/10/26 03:17:33;;;;;;;35.92;18.40;;;14.50;99.90;;;;;;5018995;28;20049;-74
2022/10/26 03:19:59;;;;;;;32.75;18.05;;;14.40;99.90;;;;;;5018232;28;20049;-75
2022/10/26 03:22:25;;;;;;;32.17;17.83;;;14.40;99.90;;;;;;5023584;28;20622;-75
2022/10/26 03:24:50;;;;;;;38.30;18.08;;;14.30;99.90;;;;;;5023476;28;20022;-75
2022/10/26 03:27:16;;;;;;;37.45;17.80;;;14.40;99.90;;;;;;5031002;28;20030;-75
2022/10/26 03:29:42;;;;;;;39.58;17.30;;;14.30;99.90;;;;;;5031032;28;20389;-75
2022/10/26 03:32:08;;;;;;;31.15;18.95;;;14.30;99.90;;;;;;5027862;28;20033;-75
2022/10/26 03:34:34;;;;;;;37.20;18.73;;;14.20;99.90;;;;;;5029888;28;20044;-75
2022/10/26 03:36:59;;;;;;;40.80;18.65;;;14.30;99.90;;;;;;5024186;28;20625;-76
2022/10/26 03:39:25;;;;;;;41.90;18.77;;;14.20;99.90;;;;;;5026339;28;20124;-76
2022/10/26 03:41:51;;;;;;;29.85;16.50;;;14.20;99.90;;;;;;5022070;28;20030;-75
2022/10/26 03:44:17;;;;;;;37.83;18.30;;;14.20;99.90;;;;;;5023510;28;20026;-75
2022/10/26 03:46:42;;;;;;;25.48;16.65;;;14.10;99.90;;;;;;5015776;28;20028;-75
2022/10/26 03:49:08;;;;;;;38.20;17.95;;;14.10;99.90;;;;;;5032266;28;20062;-75
2022/10/26 03:51:34;;;;;;;28.80;17.85;;;14.00;99.90;;;;;;5020881;28;20033;-75
2022/10/26 03:54:00;;;;;;;30.90;16.77;;;14.00;99.90;;;;;;5027813;28;20080;-76
2022/10/26 03:56:26;;;;;;;43.17;19.08;;;13.90;99.90;;;;;;5021948;28;20013;-76
2022/10/26 03:58:51;;;;;;;36.90;16.83;;;13.90;99.90;;;;;;5034272;28;20022;-76
2022/10/26 04:01:17;;;;;;;37.30;17.30;;;14.00;99.90;;;;;;5030273;28;20030;-75
2022/10/26 04:03:43;;;;;;;37.13;18.50;;;14.00;99.90;;;;;;5022852;28;20033;-76
2022/10/26 04:06:09;;;;;;;41.75;19.88;;;13.90;99.90;;;;;;5024964;28;20068;-75
2022/10/26 04:08:35;;;;;;;34.30;18.17;;;13.90;99.90;;;;;;5028177;28;20033;-76
2022/10/26 04:11:01;;;;;;;27.65;17.40;;;13.90;99.90;;;;;;5021435;28;20025;-76
2022/10/26 04:13:26;;;;;;;29.42;17.48;;;13.90;99.90;;;;;;5025305;28;20144;-75
2022/10/26 04:15:52;;;;;;;33.10;18.50;;;13.90;99.90;;;;;;5020967;28;20032;-75
2022/10/26 04:18:18;;;;;;;34.05;18.17;;;13.90;99.90;;;;;;5022266;28;20515;-75
2022/10/26 04:20:44;;;;;;;30.33;17.55;;;13.90;99.90;;;;;;5015765;28;20026;-76
2022/10/26 04:23:15;;;;;;;34.65;18.92;;;13.90;99.90;;;;;;5017207;28;20084;-75
2022/10/26 04:25:41;;;;;;;35.15;19.40;;;13.90;99.90;;;;;;5022611;28;20033;-76
2022/10/26 04:28:09;;;;;;;37.75;19.02;;;13.90;99.90;;;;;;5033927;28;20044;-76
2022/10/26 04:30:35;;;;;;;35.90;19.95;;;13.80;99.90;;;;;;5033642;28;20067;-75
2022/10/26 04:33:02;;;;;;;48.03;18.77;;;13.90;99.90;;;;;;5032029;28;20029;-75
2022/10/26 04:35:28;;;;;;;35.65;21.55;;;13.90;99.90;;;;;;5023742;28;20022;-76
2022/10/26 04:37:59;;;;;;;40.65;19.50;;;13.90;99.90;;;;;;5018765;28;20037;-76
2022/10/26 04:40:25;;;;;;;38.28;19.67;;;13.90;99.90;;;;;;5023719;28;20076;-76
2022/10/26 04:42:51;;;;;;;50.05;19.92;;;13.90;99.90;;;;;;5031244;28;20883;-75
2022/10/26 04:45:16;;;;;;;40.17;20.05;;;13.90;99.90;;;;;;5021069;28;20048;-76
2022/10/26 04:47:42;;;;;;;42.65;20.45;;;13.90;99.90;;;;;;5020224;28;20025;-76
2022/10/26 04:50:10;;;;;;;47.08;22.13;;;13.90;99.90;;;;;;5026879;28;20022;-76
2022/10/26 04:52:36;;;;;;;44.60;21.30;;;13.90;99.90;;;;;;5024097;28;20029;-75
2022/10/26 04:55:04;;;;;;;43.40;23.15;;;14.00;99.90;;;;;;5019661;28;20028;-76
2022/10/26 04:57:32;;;;;;;44.30;21.83;;;14.10;99.90;;;;;;5018377;28;20068;-75
2022/10/26 04:59:59;;;;;;;41.00;22.90;;;14.10;99.90;;;;;;5018504;28;20068;-76
2022/10/26 05:02:25;;;;;;;40.38;22.55;;;14.10;99.90;;;;;;5018261;28;20057;-76
2022/10/26 05:04:51;;;;;;;46.45;22.58;;;14.10;99.90;;;;;;5018678;28;20101;-76
2022/10/26 05:07:16;;;;;;;40.72;21.63;;;14.10;99.90;;;;;;5016142;28;20113;-76
2022/10/26 05:09:42;;;;;;;50.03;22.90;;;14.10;99.90;;;;;;5018364;28;20482;-76
2022/10/26 05:12:08;;;;;;;57.78;25.20;;;14.10;99.90;;;;;;5018053;28;20053;-76
2022/10/26 05:14:34;;;;;;;55.67;22.38;;;14.10;99.90;;;;;;5018041;28;20022;-76
2022/10/26 05:17:00;;;;;;;40.63;20.60;;;14.10;99.90;;;;;;5017983;28;20030;-75
2022/10/26 05:19:26;;;;;;;41.80;21.10;;;14.10;99.90;;;;;;5033454;28;20080;-76
2022/10/26 05:21:52;;;;;;;41.55;21.80;;;14.00;99.90;;;;;;5017962;28;20105;-76
2022/10/26 05:24:18;;;;;;;47.30;22.70;;;14.00;99.90;;;;;;5016341;28;20095;-76
2022/10/26 05:26:44;;;;;;;46.92;19.70;;;14.00;99.90;;;;;;5016506;28;20029;-75
2022/10/26 05:29:10;;;;;;;45.92;21.27;;;14.00;99.90;;;;;;5018009;28;20018;-75
2022/10/26 05:31:36;;;;;;;44.83;23.23;;;14.00;99.90;;;;;;5016698;28;20110;-76
2022/10/26 05:34:02;;;;;;;38.80;21.50;;;13.90;99.90;;;;;;5017294;28;20022;-76
2022/10/26 05:36:28;;;;;;;43.72;21.88;;;13.90;99.90;;;;;;5019570;28;20022;-75
2022/10/26 05:38:57;;;;;;;40.58;21.42;;;13.90;99.90;;;;;;5015217;28;20026;-75
2022/10/26 05:41:23;;;;;;;38.67;21.58;;;13.90;99.90;;;;;;5017316;28;20026;-76
2022/10/26 05:43:49;;;;;;;38.30;20.52;;;13.90;99.90;;;;;;5017439;28;20029;-75
2022/10/26 05:46:15;;;;;;;40.03;22.65;;;13.80;99.90;;;;;;5016593;28;20026;-75
2022/10/26 05:48:41;;;;;;;45.33;21.75;;;13.80;99.90;;;;;;5028357;28;20017;-76
2022/10/26 05:51:07;;;;;;;37.90;22.48;;;13.80;99.90;;;;;;5025895;28;20022;-76
2022/10/26 05:53:33;;;;;;;42.58;22.65;;;13.80;99.90;;;;;;5022240;28;20450;-76
2022/10/26 05:55:59;;;;;;;47.53;25.30;;;13.80;99.90;;;;;;5020264;28;20049;-75
2022/10/26 05:58:25;;;;;;;38.72;24.67;;;13.80;99.90;;;;;;5021188;28;20376;-76
2022/10/26 06:00:51;;;;;;;44.50;24.15;;;13.80;99.90;;;;;;5020098;28;20483;-76
2022/10/26 06:03:48;;;;;;;49.17;25.92;;;13.80;99.90;;;;;;5018686;28;20054;-77
2022/10/26 06:06:14;;;;;;;47.00;24.75;;;13.80;99.90;;;;;;5006098;28;20022;-77
2022/10/26 06:08:41;;;;;;;44.58;23.75;;;13.80;99.90;;;;;;5016876;28;20037;-76
2022/10/26 06:11:08;;;;;;;44.30;23.98;;;13.70;99.90;;;;;;5016818;28;20108;-76
2022/10/26 06:13:34;;;;;;;45.20;23.60;;;13.70;99.90;;;;;;5018066;28;20161;-76
2022/10/26 06:16:18;;;;;;;45.28;23.50;;;13.80;99.90;;;;;;5021628;28;20022;-76
2022/10/26 06:19:02;;;;;;;59.35;27.08;;;13.80;99.90;;;;;;5020059;28;20049;-76
2022/10/26 06:21:47;;;;;;;61.28;28.02;;;13.90;99.90;;;;;;5015918;28;20493;-75
2022/10/26 06:24:38;;;;;;;52.42;29.35;;;14.20;99.90;;;;;;5015162;28;20126;-75
2022/10/26 06:27:22;;;;;;;75.45;30.58;;;14.50;99.90;;;;;;5022207;28;20068;-75
2022/10/26 06:30:01;;;;;;;69.82;31.33;;;14.80;99.90;;;;;;5020749;28;20025;-75
2022/10/26 06:32:28;;;;;;;61.75;30.13;;;15.00;99.90;;;;;;5018448;28;20545;-74
2022/10/26 06:35:06;;;;;;;65.00;30.95;;;15.10;99.90;;;;;;5020168;28;20110;-75
2022/10/26 06:37:33;;;;;;;73.30;31.67;;;15.20;99.90;;;;;;5017631;28;20026;-74
2022/10/26 06:39:59;;;;;;;78.30;33.28;;;15.30;99.90;;;;;;5034175;28;20056;-75
2022/10/26 06:42:25;;;;;;;81.13;33.42;;;15.40;99.90;;;;;;5035743;28;20026;-74
2022/10/26 06:44:51;;;;;;;78.53;33.47;;;15.50;99.90;;;;;;5044948;28;20149;-75
2022/10/26 06:47:42;;;;;;;64.75;31.55;;;15.50;99.90;;;;;;5023772;28;20493;-74
2022/10/26 06:50:33;;;;;;;70.20;33.13;;;15.60;99.90;;;;;;5028798;28;20021;-76
2022/10/26 06:53:14;;;;;;;79.15;31.83;;;15.70;99.90;;;;;;5023596;28;20021;-75
2022/10/26 06:55:42;;;;;;;;;;;15.70;99.90;;;;;;5022684;28;20025;-75
2022/10/26 06:58:19;;;;;;;77.38;27.35;;;15.80;99.90;;;;;;5022329;28;20489;-75
2022/10/26 07:00:48;;;;;;;70.57;30.20;;;15.80;99.90;;;;;;5018009;28;20032;-75
2022/10/26 07:03:14;;;;;;;68.88;29.70;;;15.90;99.90;;;;;;5015601;28;20053;-76
2022/10/26 07:05:40;;;;;;;81.32;30.52;;;16.00;99.90;;;;;;5020685;28;20025;-76
2022/10/26 07:08:06;;;;;;;71.13;32.15;;;16.00;99.90;;;;;;5021181;28;20083;-76
2022/10/26 07:10:34;;;;;;;83.28;30.00;;;16.10;99.90;;;;;;5021167;28;20097;-76
2022/10/26 07:13:00;;;;;;;69.65;30.00;;;16.00;99.90;;;;;;5032632;28;20410;-76
2022/10/26 07:15:26;;;;;;;74.63;31.08;;;16.10;99.90;;;;;;5028291;28;20026;-76
2022/10/26 07:17:52;;;;;;;78.22;32.58;;;16.00;99.90;;;;;;5013500;28;20030;-76
2022/10/26 07:20:20;;;;;;;82.30;30.98;;;16.10;99.90;;;;;;5024450;28;20041;-77
2022/10/26 07:22:54;;;;;;;81.75;30.52;;;16.10;99.90;;;;;;5017484;28;20061;-77
2022/10/26 07:25:21;;;;;;;75.05;27.75;;;16.10;99.90;;;;;;5020242;28;20025;-77
2022/10/26 07:27:47;;;;;;;77.82;28.58;;;16.10;99.90;;;;;;5024283;28;20406;-78
2022/10/26 07:30:13;;;;;;;62.65;27.50;;;16.20;99.90;;;;;;5002677;28;20022;-77
2022/10/26 07:32:38;;;;;;;68.03;25.60;;;16.20;99.90;;;;;;5035452;28;20032;-77
2022/10/26 07:35:04;;;;;;;68.25;25.55;;;16.30;99.90;;;;;;5014595;28;20018;-77
2022/10/26 07:37:30;;;;;;;54.35;23.33;;;16.40;99.90;;;;;;5020045;28;20053;-77
2022/10/26 07:39:56;;;;;;;50.42;25.20;;;16.40;99.90;;;;;;5016898;28;20557;-77
2022/10/26 07:42:22;;;;;;;58.22;22.67;;;16.50;99.90;;;;;;5014917;28;20076;-78
2022/10/26 07:44:48;;;;;;;55.95;22.75;;;16.60;99.90;;;;;;5024470;28;20440;-77
2022/10/26 07:47:14;;;;;;;48.28;20.10;;;16.60;99.90;;;;;;5022867;28;20029;-78
2022/10/26 07:49:39;;;;;;;53.92;22.52;;;16.60;99.90;;;;;;5020922;28;20151;-75
2022/10/26 07:52:06;;;;;;;41.72;20.50;;;16.60;99.90;;;;;;5018338;28;20082;-76
2022/10/26 07:54:32;;;;;;;37.17;19.10;;;16.50;99.90;;;;;;5021810;28;20018;-76
2022/10/26 07:56:58;;;;;;;58.40;19.75;;;16.50;99.90;;;;;;5019720;28;20026;-77
2022/10/26 07:59:24;;;;;;;46.90;19.33;;;16.50;99.90;;;;;;5030435;28;20022;-76
2022/10/26 08:01:49;;;;;;;40.42;18.13;;;16.40;99.90;;;;;;5017426;28;20152;-76
2022/10/26 08:04:15;;;;;;;36.47;18.02;;;16.50;99.90;;;;;;5020372;28;20097;-77
2022/10/26 08:06:41;;;;;;;42.20;19.20;;;16.40;99.90;;;;;;5023799;28;20025;-76
2022/10/26 08:09:07;;;;;;;51.50;20.10;;;16.50;99.90;;;;;;5019752;28;20034;-76
2022/10/26 08:11:35;;;;;;;31.63;17.58;;;16.50;99.90;;;;;;5026066;28;20034;-76
2022/10/26 08:14:01;;;;;;;42.22;18.48;;;16.60;99.90;;;;;;5025181;28;20601;-76
2022/10/26 08:16:27;;;;;;;47.28;18.67;;;16.70;99.90;;;;;;5024873;28;20125;-76
2022/10/26 08:18:53;;;;;;;37.67;17.20;;;16.90;99.90;;;;;;5030359;28;20034;-77
2022/10/26 08:21:19;;;;;;;38.05;16.55;;;16.90;99.90;;;;;;5034933;28;20056;-77
2022/10/26 08:23:45;;;;;;;35.05;15.02;;;17.00;99.90;;;;;;5021779;28;20110;-76
2022/10/26 08:26:11;;;;;;;44.40;16.25;;;17.00;99.90;;;;;;5031316;28;20100;-77
2022/10/26 08:28:37;;;;;;;39.58;15.45;;;17.20;99.90;;;;;;5026691;28;20033;-76
2022/10/26 08:31:03;;;;;;;29.80;13.82;;;17.20;99.90;;;;;;5027191;28;20387;-76
2022/10/26 08:33:29;;;;;;;40.80;15.55;;;17.30;99.90;;;;;;5024313;28;20022;-76
2022/10/26 08:36:00;;;;;;;31.02;13.10;;;17.40;99.90;;;;;;5021039;28;20029;-77
2022/10/26 08:38:26;;;;;;;30.40;13.63;;;17.50;99.90;;;;;;5019730;28;20060;-77
2022/10/26 08:40:55;;;;;;;33.90;13.63;;;17.60;99.90;;;;;;5019856;28;20034;-77
2022/10/26 08:43:28;;;;;;;29.35;14.13;;;17.70;99.90;;;;;;5032867;28;20029;-77
2022/10/26 08:46:16;;;;;;;31.70;12.20;;;17.80;99.90;;;;;;5022882;28;20092;-77
2022/10/26 08:49:19;;;;;;;29.58;12.02;;;17.90;99.90;;;;;;5019248;28;20030;-77
2022/10/26 08:51:46;;;;;;;27.83;12.25;;;18.00;99.90;;;;;;5014238;28;20052;-77
2022/10/26 08:54:27;;;;;;;31.90;12.40;;;18.10;99.90;;;;;;5022441;28;20026;-78
2022/10/26 08:57:00;;;;;;;28.17;11.90;;;18.20;99.90;;;;;;5024555;28;20378;-77
2022/10/26 08:59:37;;;;;;;33.70;11.98;;;18.30;99.90;;;;;;5026217;28;20109;-77
2022/10/26 09:02:12;;;;;;;32.45;11.07;;;18.50;99.90;;;;;;5029449;28;20028;-78
2022/10/26 09:04:38;;;;;;;22.98;10.02;;;18.60;99.90;;;;;;5019935;28;20022;-77
2022/10/26 09:07:22;;;;;;;29.98;10.55;;;18.70;99.90;;;;;;5026719;28;20080;-77
2022/10/26 09:10:26;;;;;;;34.40;11.73;;;18.70;99.90;;;;;;5020664;28;20026;-77
2022/10/26 09:13:11;;;;;;;33.22;11.27;;;18.70;99.90;;;;;;5003959;28;20454;-77
2022/10/26 09:15:56;;;;;;;32.97;10.68;;;18.80;99.90;;;;;;5023211;28;20093;-77
2022/10/26 09:18:24;;;;;;;30.25;11.25;;;18.80;99.90;;;;;;5031150;28;20506;-77
2022/10/26 09:20:58;;;;;;;30.83;12.13;;;18.90;99.90;;;;;;5033477;28;20056;-78
2022/10/26 09:23:38;;;;;;;33.45;11.30;;;18.90;99.90;;;;;;5028784;28;20052;-77
2022/10/26 09:26:12;;;;;;;37.25;11.32;;;19.00;99.90;;;;;;5017059;28;20470;-79
2022/10/26 09:28:40;;;;;;;30.23;11.15;;;19.00;99.90;;;;;;5026846;28;20061;-78
2022/10/26 09:31:14;;;;;;;26.77;9.43;;;19.00;99.90;;;;;;5049202;28;20033;-78
2022/10/26 09:33:39;;;;;;;24.08;8.35;;;19.00;99.90;;;;;;5017407;28;20026;-78
2022/10/26 09:36:11;;;;;;;25.63;9.50;;;19.10;99.90;;;;;;5022380;28;20026;-79
2022/10/26 09:38:49;;;;;;;27.50;9.48;;;19.00;99.90;;;;;;5033818;28;20414;-78
2022/10/26 09:41:46;;;;;;;27.23;9.65;;;19.10;99.90;;;;;;5030015;28;20049;-78
2022/10/26 09:44:18;;;;;;;30.67;9.48;;;19.20;99.90;;;;;;5026281;28;20026;-77
2022/10/26 09:47:06;;;;;;;29.67;8.48;;;19.30;99.90;;;;;;5031762;28;20057;-77
2022/10/26 09:49:47;;;;;;;29.05;9.07;;;19.30;99.90;;;;;;5020559;28;20109;-79
2022/10/26 09:52:14;;;;;;;24.52;8.88;;;19.40;99.90;;;;;;5022899;28;20041;-79
2022/10/26 09:54:40;;;;;;;23.17;9.88;;;19.50;99.90;;;;;;5022662;28;20498;-77
2022/10/26 09:57:07;;;;;;;25.10;9.05;;;19.50;99.90;;;;;;5025307;28;20404;-78
2022/10/26 09:59:37;;;;;;;27.50;10.13;;;19.70;99.90;;;;;;5036528;28;20033;-79
2022/10/26 10:02:37;;;;;;;34.92;10.75;;;19.70;99.90;;;;;;5021721;28;20037;-77
2022/10/26 10:05:19;;;;;;;27.25;9.43;;;19.80;99.90;;;;;;5011449;28;20026;-79
2022/10/26 10:07:45;;;;;;;21.30;8.43;;;19.80;99.90;;;;;;5011473;28;20076;-80
2022/10/26 10:10:20;;;;;;;26.23;7.72;;;19.80;99.90;;;;;;5035043;28;20025;-77
2022/10/26 10:12:49;;;;;;;24.20;9.20;;;19.90;99.90;;;;;;5034195;28;20057;-77
2022/10/26 10:15:24;;;;;;;25.73;8.77;;;19.90;99.90;;;;;;5033220;28;20101;-80
2022/10/26 10:17:56;;;;;;;26.50;8.77;;;19.80;99.90;;;;;;5022896;28;20033;-78
2022/10/26 10:20:56;;;;;;;21.70;9.35;;;19.80;99.90;;;;;;5027902;28;20025;-78
2022/10/26 10:23:45;;;;;;;25.50;8.45;;;19.90;99.90;;;;;;5013078;28;20026;-75
2022/10/26 10:26:11;;;;;;;28.92;8.65;;;20.00;99.90;;;;;;5011176;28;20071;-78
2022/10/26 10:28:38;;;;;;;19.67;7.70;;;20.10;99.90;;;;;;5017585;28;20042;-78
2022/10/26 10:31:17;;;;;;;21.45;7.25;;;20.30;99.90;;;;;;5032316;28;20513;-78
2022/10/26 10:33:44;;;;;;;20.50;8.43;;;20.40;99.90;;;;;;5021502;28;20022;-79
2022/10/26 10:36:16;;;;;;;23.48;7.97;;;20.60;99.90;;;;;;5025214;28;20017;-78
2022/10/26 10:38:44;;;;;;;23.20;7.93;;;20.70;99.90;;;;;;5021565;28;20025;-79
2022/10/26 10:41:31;;;;;;;21.83;7.57;;;20.80;99.90;;;;;;5029784;28;20500;-77
2022/10/26 10:44:15;;;;;;;21.45;7.00;;;20.90;99.90;;;;;;5030862;28;20057;-77
2022/10/26 10:46:41;;;;;;;23.50;8.30;;;21.00;99.90;;;;;;5018167;28;20072;-78
2022/10/26 10:49:23;;;;;;;23.25;8.68;;;21.10;99.90;;;;;;5028154;28;20508;-78
2022/10/26 10:51:49;;;;;;;26.42;8.05;;;21.20;99.90;;;;;;5020977;28;20076;-78
2022/10/26 10:54:29;;;;;;;27.13;8.63;;;21.30;99.90;;;;;;5012322;28;20045;-78
2022/10/26 10:57:22;;;;;;;20.85;7.65;;;21.30;99.90;;;;;;5019324;28;20018;-77
2022/10/26 10:59:53;;;;;;;21.02;7.32;;;21.50;99.90;;;;;;5033387;28;20029;-77
2022/10/26 11:02:44;;;;;;;17.17;6.75;;;21.50;99.90;;;;;;5020804;28;20386;-78
2022/10/26 11:05:26;;;;;;;18.00;6.70;;;21.50;99.90;;;;;;5019475;28;20556;-79
2022/10/26 11:08:07;;;;;;;29.23;7.55;;;21.60;99.90;;;;;;5016398;28;20033;-78
2022/10/26 11:10:38;;;;;;;16.33;6.72;;;21.60;99.90;;;;;;5019517;28;20080;-78
2022/10/26 11:13:19;;;;;;;26.85;7.43;;;21.60;99.90;;;;;;5035163;28;20051;-77
2022/10/26 11:15:49;;;;;;;20.42;6.82;;;21.60;99.90;;;;;;5031765;28;20017;-78
2022/10/26 11:18:25;;;;;;;;;;;21.70;99.90;;;;;;5029320;28;20029;-79
2022/10/26 11:21:00;;;;;;;26.38;7.40;;;21.70;99.90;;;;;;5026683;28;19909;-78
2022/10/26 11:23:40;;;;;;;26.38;7.28;;;21.80;99.90;;;;;;5028110;28;20033;-77
2022/10/26 11:26:14;;;;;;;21.48;7.10;;;21.80;99.90;;;;;;5024313;28;20058;-78
2022/10/26 11:28:52;;;;;;;24.67;7.35;;;21.80;99.90;;;;;;5022123;28;20033;-78
2022/10/26 11:31:25;;;;;;;29.42;7.47;;;21.80;99.90;;;;;;5014997;28;20021;-79
2022/10/26 11:34:26;;;;;;;24.23;6.40;;;21.90;99.90;;;;;;5020397;28;20352;-78
2022/10/26 11:36:55;;;;;;;;;;;22.00;99.90;;;;;;5019015;28;20018;-78
2022/10/26 11:39:43;;;;;;;15.93;7.13;;;22.10;99.90;;;;;;5017319;28;20013;-79
2022/10/26 11:42:20;;;;;;;17.88;6.65;;;22.20;99.90;;;;;;5016776;28;20014;-78
2022/10/26 11:45:08;;;;;;;19.17;7.45;;;22.20;99.90;;;;;;5023377;28;20018;-78
2022/10/26 11:47:59;;;;;;;23.10;7.90;;;22.20;99.90;;;;;;5032678;28;20030;-78
2022/10/26 11:50:26;;;;;;;;;;;22.30;99.90;;;;;;5021256;28;20026;-77
2022/10/26 11:53:15;;;;;;;20.83;6.72;;;22.40;99.90;;;;;;5021296;28;19905;-78
2022/10/26 11:55:46;;;;;;;19.10;6.30;;;22.50;99.90;;;;;;5021743;28;20017;-78
2022/10/26 11:58:12;;;;;;;22.45;5.80;;;22.40;99.90;;;;;;5025845;28;20028;-78
2022/10/26 12:00:53;;;;;;;20.15;6.45;;;22.40;99.90;;;;;;5032652;28;20017;-79
2022/10/26 12:03:26;;;;;;;17.48;7.90;;;22.40;99.90;;;;;;5016804;28;20062;-79
2022/10/26 12:05:53;;;;;;;25.63;7.47;;;22.40;99.90;;;;;;5011334;28;20114;-78
2022/10/26 12:08:24;;;;;;;27.38;8.45;;;22.30;99.90;;;;;;5014069;28;20068;-79
2022/10/26 12:11:11;;;;;;;15.57;6.90;;;22.20;99.90;;;;;;4999802;28;20060;-78
2022/10/26 12:13:40;;;;;;;23.50;6.95;;;22.10;99.90;;;;;;4993191;28;20477;-79
2022/10/26 12:16:16;;;;;;;25.08;6.57;;;22.20;99.90;;;;;;5017680;28;20026;-79
2022/10/26 12:18:47;;;;;;;26.92;7.63;;;22.20;99.90;;;;;;5021165;28;20429;-78
2022/10/26 12:21:14;;;;;;;18.15;7.68;;;22.20;99.90;;;;;;5026436;28;20445;-78
2022/10/26 12:24:00;;;;;;;25.23;6.85;;;22.20;99.90;;;;;;5022113;28;20081;-78
2022/10/26 12:26:26;;;;;;;24.52;6.85;;;22.10;99.90;;;;;;5036386;28;20026;-79
2022/10/26 12:29:01;;;;;;;31.20;9.13;;;21.90;99.90;;;;;;5030625;28;20041;-78
2022/10/26 12:31:36;;;;;;;25.45;8.00;;;22.00;99.90;;;;;;5025283;28;20025;-79
2022/10/26 12:34:12;;;;;;;21.02;7.10;;;22.00;99.90;;;;;;5028375;28;20025;-79
2022/10/26 12:36:56;;;;;;;19.52;7.32;;;21.90;99.90;;;;;;5026919;28;20049;-78
2022/10/26 12:39:39;;;;;;;25.23;8.55;;;21.80;99.90;;;;;;5029683;28;20416;-78
2022/10/26 12:42:05;;;;;;;28.13;7.88;;;21.90;99.90;;;;;;5024114;28;20022;-80
2022/10/26 12:44:40;;;;;;;18.17;7.40;;;21.80;99.90;;;;;;5024685;28;20028;-78
2022/10/26 12:47:09;;;;;;;20.02;7.25;;;21.80;99.90;;;;;;5021941;28;20096;-78
2022/10/26 12:50:00;;;;;;;24.60;7.93;;;21.90;99.90;;;;;;5020630;28;20538;-78
2022/10/26 12:52:47;;;;;;;29.52;7.55;;;21.90;99.90;;;;;;5031387;28;20112;-78
2022/10/26 12:55:22;;;;;;;21.30;7.63;;;22.10;99.90;;;;;;5023798;28;20478;-78